sensor_id;sensor_type;location;lat;lon;timestamp;temperature;humidity
2623;DHT22;1321;48.690;9.022;2023-05-13T00:00:38;13.10;1.00
2623;DHT22;1321;48.690;9.022;2023-05-13T00:03:07;13.00;1.00
2623;DHT22;1321;48.690;9.022;2023-05-13T00:05:36;13.10;1.00
2623;DHT22;1321;48.690;9.022;2023-05-13T00:08:04;13.00;1.00
2623;DHT22;1321;48.690;9.022;2023-05-13T00:10:34;12.90;83.20
2623;DHT22;1321;48.690;9.022;2023-05-13T00:13:02;12.90;99.90
2623;DHT22;1321;48.690;9.022;2023-05-13T00:15:30;12.90;99.90
2623;DHT22;1321;48.690;9.022;2023-05-13T00:17:59;12.90;99.90
2623;DHT22;1321;48.690;9.022;2023-05-13T00:20:28;12.90;99.90
2623;DHT22;1321;48.690;9.022;2023-05-13T00:22:57;12.90;99.90
2623;DHT22;1321;48.690;9.022;2023-05-13T00:25:25;12.90;99.90
2623;DHT22;1321;48.690;9.022;2023-05-13T00:27:53;12.90;99.90
2623;DHT22;1321;48.690;9.022;2023-05-13T00:30:21;12.90;1.00
2623;DHT22;1321;48.690;9.022;2023-05-13T00:32:50;12.90;1.00
2623;DHT22;1321;48.690;9.022;2023-05-13T00:35:18;13.00;1.00
2623;DHT22;1321;48.690;9.022;2023-05-13T00:37:48;13.00;1.00
2623;DHT22;1321;48.690;9.022;2023-05-13T00:40:19;13.00;1.00
2623;DHT22;1321;48.690;9.022;2023-05-13T00:42:49;13.00;1.00
2623;DHT22;1321;48.690;9.022;2023-05-13T00:45:17;13.00;93.80
2623;DHT22;1321;48.690;9.022;2023-05-13T00:47:46;13.00;99.90
2623;DHT22;1321;48.690;9.022;2023-05-13T00:50:15;12.90;99.90
2623;DHT22;1321;48.690;9.022;2023-05-13T00:52:43;13.00;1.00
2623;DHT22;1321;48.690;9.022;2023-05-13T00:55:13;13.00;99.90
2623;DHT22;1321;48.690;9.022;2023-05-13T00:57:41;13.00;99.90
2623;DHT22;1321;48.690;9.022;2023-05-13T01:00:10;13.10;99.90
2623;DHT22;1321;48.690;9.022;2023-05-13T01:02:44;13.00;99.90
2623;DHT22;1321;48.690;9.022;2023-05-13T01:05:19;13.00;99.90
2623;DHT22;1321;48.690;9.022;2023-05-13T01:08:02;13.00;99.90
2623;DHT22;1321;48.690;9.022;2023-05-13T01:10:39;13.00;1.00
2623;DHT22;1321;48.690;9.022;2023-05-13T01:13:11;13.00;1.00
2623;DHT22;1321;48.690;9.022;2023-05-13T01:15:45;13.00;1.00
2623;DHT22;1321;48.690;9.022;2023-05-13T01:18:18;13.00;1.00
2623;DHT22;1321;48.690;9.022;2023-05-13T01:20:47;13.00;1.00
2623;DHT22;1321;48.690;9.022;2023-05-13T01:23:17;13.00;92.40
2623;DHT22;1321;48.690;9.022;2023-05-13T01:25:45;13.10;32.70
2623;DHT22;1321;48.690;9.022;2023-05-13T01:28:13;13.10;10.40
2623;DHT22;1321;48.690;9.022;2023-05-13T01:30:41;13.10;99.90
2623;DHT22;1321;48.690;9.022;2023-05-13T01:33:10;13.10;99.90
2623;DHT22;1321;48.690;9.022;2023-05-13T01:35:38;13.10;87.70
2623;DHT22;1321;48.690;9.022;2023-05-13T01:38:07;13.10;35.30
2623;DHT22;1321;48.690;9.022;2023-05-13T01:40:38;13.10;79.70
2623;DHT22;1321;48.690;9.022;2023-05-13T01:43:07;13.10;99.90
2623;DHT22;1321;48.690;9.022;2023-05-13T01:45:35;13.10;99.90
2623;DHT22;1321;48.690;9.022;2023-05-13T01:48:03;13.10;1.00
2623;DHT22;1321;48.690;9.022;2023-05-13T01:50:32;13.00;99.90
2623;DHT22;1321;48.690;9.022;2023-05-13T01:53:00;13.10;99.90
2623;DHT22;1321;48.690;9.022;2023-05-13T01:55:29;13.10;79.30
2623;DHT22;1321;48.690;9.022;2023-05-13T01:57:58;13.10;1.00
2623;DHT22;1321;48.690;9.022;2023-05-13T02:00:26;13.10;1.00
2623;DHT22;1321;48.690;9.022;2023-05-13T02:02:55;13.10;1.00
2623;DHT22;1321;48.690;9.022;2023-05-13T02:05:23;13.00;1.00
2623;DHT22;1321;48.690;9.022;2023-05-13T02:07:51;13.00;1.00
2623;DHT22;1321;48.690;9.022;2023-05-13T02:10:19;12.90;99.90
2623;DHT22;1321;48.690;9.022;2023-05-13T02:12:48;12.90;99.90
2623;DHT22;1321;48.690;9.022;2023-05-13T02:15:18;12.90;1.00
2623;DHT22;1321;48.690;9.022;2023-05-13T02:17:46;12.90;1.00
2623;DHT22;1321;48.690;9.022;2023-05-13T02:20:14;12.90;1.00
2623;DHT22;1321;48.690;9.022;2023-05-13T02:22:42;12.90;1.00
2623;DHT22;1321;48.690;9.022;2023-05-13T02:25:11;12.80;1.00
2623;DHT22;1321;48.690;9.022;2023-05-13T02:27:39;12.80;1.00
2623;DHT22;1321;48.690;9.022;2023-05-13T02:30:08;12.80;1.00
2623;DHT22;1321;48.690;9.022;2023-05-13T02:32:38;12.80;99.90
2623;DHT22;1321;48.690;9.022;2023-05-13T02:35:08;12.80;99.90
2623;DHT22;1321;48.690;9.022;2023-05-13T02:37:37;12.80;99.90
2623;DHT22;1321;48.690;9.022;2023-05-13T02:40:06;12.70;1.00
2623;DHT22;1321;48.690;9.022;2023-05-13T02:42:35;12.70;99.90
2623;DHT22;1321;48.690;9.022;2023-05-13T02:45:03;12.70;99.90
2623;DHT22;1321;48.690;9.022;2023-05-13T02:47:32;12.70;99.90
2623;DHT22;1321;48.690;9.022;2023-05-13T02:50:03;12.60;99.90
2623;DHT22;1321;48.690;9.022;2023-05-13T02:52:32;12.60;1.00
2623;DHT22;1321;48.690;9.022;2023-05-13T02:55:01;12.60;99.90
2623;DHT22;1321;48.690;9.022;2023-05-13T02:57:30;12.70;99.90
2623;DHT22;1321;48.690;9.022;2023-05-13T02:59:58;12.70;99.90
2623;DHT22;1321;48.690;9.022;2023-05-13T03:02:26;12.70;99.90
2623;DHT22;1321;48.690;9.022;2023-05-13T03:04:55;12.70;99.90
2623;DHT22;1321;48.690;9.022;2023-05-13T03:07:24;12.70;99.90
2623;DHT22;1321;48.690;9.022;2023-05-13T03:09:52;12.60;99.90
2623;DHT22;1321;48.690;9.022;2023-05-13T03:12:21;12.70;1.00
2623;DHT22;1321;48.690;9.022;2023-05-13T03:14:49;12.70;1.00
2623;DHT22;1321;48.690;9.022;2023-05-13T03:17:17;12.70;99.90
2623;DHT22;1321;48.690;9.022;2023-05-13T03:19:45;12.70;99.90
2623;DHT22;1321;48.690;9.022;2023-05-13T03:22:14;12.60;1.00
2623;DHT22;1321;48.690;9.022;2023-05-13T03:24:43;12.60;1.00
2623;DHT22;1321;48.690;9.022;2023-05-13T03:27:11;12.60;1.00
2623;DHT22;1321;48.690;9.022;2023-05-13T03:29:40;12.60;99.90
2623;DHT22;1321;48.690;9.022;2023-05-13T03:32:08;12.60;99.90
2623;DHT22;1321;48.690;9.022;2023-05-13T03:34:36;12.60;99.90
2623;DHT22;1321;48.690;9.022;2023-05-13T03:37:04;12.60;99.90
2623;DHT22;1321;48.690;9.022;2023-05-13T03:39:33;12.60;99.90
2623;DHT22;1321;48.690;9.022;2023-05-13T03:42:04;12.60;99.90
2623;DHT22;1321;48.690;9.022;2023-05-13T03:44:32;12.60;99.90
2623;DHT22;1321;48.690;9.022;2023-05-13T03:47:00;12.60;99.90
2623;DHT22;1321;48.690;9.022;2023-05-13T03:49:28;12.60;39.80
2623;DHT22;1321;48.690;9.022;2023-05-13T03:51:56;12.50;1.00
2623;DHT22;1321;48.690;9.022;2023-05-13T03:54:25;12.50;7.30
2623;DHT22;1321;48.690;9.022;2023-05-13T03:56:53;12.50;21.50
2623;DHT22;1321;48.690;9.022;2023-05-13T03:59:22;12.50;37.60
2623;DHT22;1321;48.690;9.022;2023-05-13T04:01:51;12.50;56.80
2623;DHT22;1321;48.690;9.022;2023-05-13T04:04:19;12.50;1.00
2623;DHT22;1321;48.690;9.022;2023-05-13T04:06:47;12.60;1.00
2623;DHT22;1321;48.690;9.022;2023-05-13T04:09:15;12.60;1.00
2623;DHT22;1321;48.690;9.022;2023-05-13T04:11:43;12.50;1.00
2623;DHT22;1321;48.690;9.022;2023-05-13T04:14:12;12.60;1.00
2623;DHT22;1321;48.690;9.022;2023-05-13T04:16:41;12.60;1.00
2623;DHT22;1321;48.690;9.022;2023-05-13T04:19:09;12.60;1.00
2623;DHT22;1321;48.690;9.022;2023-05-13T04:21:38;12.60;1.00
2623;DHT22;1321;48.690;9.022;2023-05-13T04:24:06;12.50;1.00
2623;DHT22;1321;48.690;9.022;2023-05-13T04:26:34;12.50;1.00
2623;DHT22;1321;48.690;9.022;2023-05-13T04:29:04;12.60;1.00
2623;DHT22;1321;48.690;9.022;2023-05-13T04:31:32;12.60;1.00
2623;DHT22;1321;48.690;9.022;2023-05-13T04:34:02;12.60;1.00
2623;DHT22;1321;48.690;9.022;2023-05-13T04:36:30;12.50;1.00
2623;DHT22;1321;48.690;9.022;2023-05-13T04:38:59;12.50;1.00
2623;DHT22;1321;48.690;9.022;2023-05-13T04:41:27;12.50;1.00
2623;DHT22;1321;48.690;9.022;2023-05-13T04:43:55;12.60;1.00
2623;DHT22;1321;48.690;9.022;2023-05-13T04:46:23;12.50;1.00
2623;DHT22;1321;48.690;9.022;2023-05-13T04:48:52;12.50;99.90
2623;DHT22;1321;48.690;9.022;2023-05-13T04:51:22;12.50;99.90
2623;DHT22;1321;48.690;9.022;2023-05-13T04:53:50;12.50;99.90
2623;DHT22;1321;48.690;9.022;2023-05-13T04:56:19;12.50;99.90
2623;DHT22;1321;48.690;9.022;2023-05-13T04:58:48;12.60;99.90
2623;DHT22;1321;48.690;9.022;2023-05-13T05:01:16;12.60;99.90
2623;DHT22;1321;48.690;9.022;2023-05-13T05:03:44;12.50;99.90
2623;DHT22;1321;48.690;9.022;2023-05-13T05:06:12;12.50;99.90
2623;DHT22;1321;48.690;9.022;2023-05-13T05:08:42;12.50;99.90
2623;DHT22;1321;48.690;9.022;2023-05-13T05:11:10;12.50;99.90
2623;DHT22;1321;48.690;9.022;2023-05-13T05:13:39;12.50;99.90
2623;DHT22;1321;48.690;9.022;2023-05-13T05:16:07;12.40;99.90
2623;DHT22;1321;48.690;9.022;2023-05-13T05:18:35;12.50;99.90
2623;DHT22;1321;48.690;9.022;2023-05-13T05:21:03;12.50;99.90
2623;DHT22;1321;48.690;9.022;2023-05-13T05:23:32;12.50;99.90
2623;DHT22;1321;48.690;9.022;2023-05-13T05:26:01;12.50;99.90
2623;DHT22;1321;48.690;9.022;2023-05-13T05:28:38;12.50;99.90
2623;DHT22;1321;48.690;9.022;2023-05-13T05:31:06;12.50;99.90
2623;DHT22;1321;48.690;9.022;2023-05-13T05:33:35;12.50;99.90
2623;DHT22;1321;48.690;9.022;2023-05-13T05:36:04;12.50;99.90
2623;DHT22;1321;48.690;9.022;2023-05-13T05:38:33;12.60;99.90
2623;DHT22;1321;48.690;9.022;2023-05-13T05:41:03;12.50;99.90
2623;DHT22;1321;48.690;9.022;2023-05-13T05:43:31;12.60;99.90
2623;DHT22;1321;48.690;9.022;2023-05-13T05:45:59;12.50;99.90
2623;DHT22;1321;48.690;9.022;2023-05-13T05:48:27;12.60;99.90
2623;DHT22;1321;48.690;9.022;2023-05-13T05:50:59;12.60;99.90
2623;DHT22;1321;48.690;9.022;2023-05-13T05:53:27;12.60;99.90
2623;DHT22;1321;48.690;9.022;2023-05-13T05:55:55;12.70;99.90
2623;DHT22;1321;48.690;9.022;2023-05-13T05:58:25;12.70;99.90
2623;DHT22;1321;48.690;9.022;2023-05-13T06:00:53;12.70;99.90
2623;DHT22;1321;48.690;9.022;2023-05-13T06:03:23;12.70;99.90
2623;DHT22;1321;48.690;9.022;2023-05-13T06:05:51;12.70;99.90
2623;DHT22;1321;48.690;9.022;2023-05-13T06:08:20;12.80;99.90
2623;DHT22;1321;48.690;9.022;2023-05-13T06:10:48;12.70;62.30
2623;DHT22;1321;48.690;9.022;2023-05-13T06:13:16;12.80;99.90
2623;DHT22;1321;48.690;9.022;2023-05-13T06:15:46;12.80;91.00
2623;DHT22;1321;48.690;9.022;2023-05-13T06:18:14;12.80;99.90
2623;DHT22;1321;48.690;9.022;2023-05-13T06:20:42;12.80;99.90
2623;DHT22;1321;48.690;9.022;2023-05-13T06:23:10;12.80;99.90
2623;DHT22;1321;48.690;9.022;2023-05-13T06:25:40;12.90;37.10
2623;DHT22;1321;48.690;9.022;2023-05-13T06:28:10;12.90;1.00
2623;DHT22;1321;48.690;9.022;2023-05-13T06:30:38;12.90;1.00
2623;DHT22;1321;48.690;9.022;2023-05-13T06:33:07;13.00;1.00
2623;DHT22;1321;48.690;9.022;2023-05-13T06:35:38;13.00;1.00
2623;DHT22;1321;48.690;9.022;2023-05-13T06:38:06;13.00;99.90
2623;DHT22;1321;48.690;9.022;2023-05-13T06:40:36;13.00;99.90
2623;DHT22;1321;48.690;9.022;2023-05-13T06:43:04;13.00;99.90
2623;DHT22;1321;48.690;9.022;2023-05-13T06:45:32;13.10;99.90
2623;DHT22;1321;48.690;9.022;2023-05-13T06:48:00;13.10;1.00
2623;DHT22;1321;48.690;9.022;2023-05-13T06:50:30;13.10;1.00
2623;DHT22;1321;48.690;9.022;2023-05-13T06:52:58;13.10;1.00
2623;DHT22;1321;48.690;9.022;2023-05-13T06:55:27;13.10;1.00
2623;DHT22;1321;48.690;9.022;2023-05-13T06:57:55;13.10;99.90
2623;DHT22;1321;48.690;9.022;2023-05-13T07:00:23;13.10;99.90
2623;DHT22;1321;48.690;9.022;2023-05-13T07:02:52;13.20;99.90
2623;DHT22;1321;48.690;9.022;2023-05-13T07:05:20;13.20;99.90
2623;DHT22;1321;48.690;9.022;2023-05-13T07:07:50;13.30;99.90
2623;DHT22;1321;48.690;9.022;2023-05-13T07:10:19;13.30;99.90
2623;DHT22;1321;48.690;9.022;2023-05-13T07:12:48;13.30;99.90
2623;DHT22;1321;48.690;9.022;2023-05-13T07:15:16;13.40;99.90
2623;DHT22;1321;48.690;9.022;2023-05-13T07:17:45;13.40;99.90
2623;DHT22;1321;48.690;9.022;2023-05-13T07:20:13;13.40;99.90
2623;DHT22;1321;48.690;9.022;2023-05-13T07:22:42;13.50;99.90
2623;DHT22;1321;48.690;9.022;2023-05-13T07:25:11;13.50;99.90
2623;DHT22;1321;48.690;9.022;2023-05-13T07:27:39;13.50;99.90
2623;DHT22;1321;48.690;9.022;2023-05-13T07:30:09;13.50;99.90
2623;DHT22;1321;48.690;9.022;2023-05-13T07:32:37;13.50;99.90
2623;DHT22;1321;48.690;9.022;2023-05-13T07:35:06;13.60;99.90
2623;DHT22;1321;48.690;9.022;2023-05-13T07:37:35;13.60;99.90
2623;DHT22;1321;48.690;9.022;2023-05-13T07:40:05;13.70;99.90
2623;DHT22;1321;48.690;9.022;2023-05-13T07:42:35;13.70;99.90
2623;DHT22;1321;48.690;9.022;2023-05-13T07:45:04;13.80;99.90
2623;DHT22;1321;48.690;9.022;2023-05-13T07:47:33;13.90;99.90
2623;DHT22;1321;48.690;9.022;2023-05-13T07:50:03;13.90;99.90
2623;DHT22;1321;48.690;9.022;2023-05-13T07:52:31;14.00;99.90
2623;DHT22;1321;48.690;9.022;2023-05-13T07:55:00;13.90;36.10
2623;DHT22;1321;48.690;9.022;2023-05-13T07:57:28;14.00;99.90
2623;DHT22;1321;48.690;9.022;2023-05-13T07:59:57;14.10;90.00
2623;DHT22;1321;48.690;9.022;2023-05-13T08:02:26;14.20;97.20
2623;DHT22;1321;48.690;9.022;2023-05-13T08:04:54;14.20;80.70
2623;DHT22;1321;48.690;9.022;2023-05-13T08:07:22;14.30;15.70
2623;DHT22;1321;48.690;9.022;2023-05-13T08:09:50;14.20;1.00
2623;DHT22;1321;48.690;9.022;2023-05-13T08:12:19;14.20;1.00
2623;DHT22;1321;48.690;9.022;2023-05-13T08:14:47;14.30;20.70
2623;DHT22;1321;48.690;9.022;2023-05-13T08:17:16;14.30;9.30
2623;DHT22;1321;48.690;9.022;2023-05-13T08:19:45;14.30;3.00
2623;DHT22;1321;48.690;9.022;2023-05-13T08:22:13;14.40;1.00
2623;DHT22;1321;48.690;9.022;2023-05-13T08:24:42;14.40;1.00
2623;DHT22;1321;48.690;9.022;2023-05-13T08:27:10;14.40;1.00
2623;DHT22;1321;48.690;9.022;2023-05-13T08:29:38;14.40;1.00
2623;DHT22;1321;48.690;9.022;2023-05-13T08:32:06;14.40;1.00
2623;DHT22;1321;48.690;9.022;2023-05-13T08:34:36;14.40;1.00
2623;DHT22;1321;48.690;9.022;2023-05-13T08:37:06;14.40;1.00
2623;DHT22;1321;48.690;9.022;2023-05-13T08:39:34;14.30;1.00
2623;DHT22;1321;48.690;9.022;2023-05-13T08:42:03;14.40;24.20
2623;DHT22;1321;48.690;9.022;2023-05-13T08:44:31;14.40;1.00
2623;DHT22;1321;48.690;9.022;2023-05-13T08:47:23;14.50;1.00
2623;DHT22;1321;48.690;9.022;2023-05-13T08:49:55;14.40;1.00
2623;DHT22;1321;48.690;9.022;2023-05-13T08:52:23;14.40;1.00
2623;DHT22;1321;48.690;9.022;2023-05-13T08:54:52;14.40;1.00
2623;DHT22;1321;48.690;9.022;2023-05-13T08:57:21;14.30;1.00
2623;DHT22;1321;48.690;9.022;2023-05-13T08:59:49;14.30;1.00
2623;DHT22;1321;48.690;9.022;2023-05-13T09:02:21;14.30;1.00
2623;DHT22;1321;48.690;9.022;2023-05-13T09:04:51;14.30;1.00
2623;DHT22;1321;48.690;9.022;2023-05-13T09:07:22;14.30;1.00
2623;DHT22;1321;48.690;9.022;2023-05-13T09:09:50;14.30;1.00
2623;DHT22;1321;48.690;9.022;2023-05-13T09:12:40;14.40;1.00
2623;DHT22;1321;48.690;9.022;2023-05-13T09:15:11;14.40;1.00
2623;DHT22;1321;48.690;9.022;2023-05-13T09:17:39;14.40;1.00
2623;DHT22;1321;48.690;9.022;2023-05-13T09:20:11;14.40;1.00
2623;DHT22;1321;48.690;9.022;2023-05-13T09:22:44;14.40;1.00
2623;DHT22;1321;48.690;9.022;2023-05-13T09:25:14;14.40;1.00
2623;DHT22;1321;48.690;9.022;2023-05-13T09:27:44;14.30;1.00
2623;DHT22;1321;48.690;9.022;2023-05-13T09:30:13;14.40;1.00
2623;DHT22;1321;48.690;9.022;2023-05-13T09:32:41;14.40;1.00
2623;DHT22;1321;48.690;9.022;2023-05-13T09:35:11;14.40;1.00
2623;DHT22;1321;48.690;9.022;2023-05-13T09:37:47;14.40;1.00
2623;DHT22;1321;48.690;9.022;2023-05-13T09:40:17;14.40;1.00
2623;DHT22;1321;48.690;9.022;2023-05-13T09:42:45;14.40;1.00
2623;DHT22;1321;48.690;9.022;2023-05-13T09:45:15;14.40;1.00
2623;DHT22;1321;48.690;9.022;2023-05-13T09:47:49;14.40;1.00
2623;DHT22;1321;48.690;9.022;2023-05-13T09:50:18;14.50;1.00
2623;DHT22;1321;48.690;9.022;2023-05-13T09:52:48;14.50;1.00
2623;DHT22;1321;48.690;9.022;2023-05-13T09:55:17;14.50;1.00
2623;DHT22;1321;48.690;9.022;2023-05-13T09:57:48;14.50;1.00
2623;DHT22;1321;48.690;9.022;2023-05-13T10:00:19;14.50;1.00
2623;DHT22;1321;48.690;9.022;2023-05-13T10:02:59;14.50;1.00
2623;DHT22;1321;48.690;9.022;2023-05-13T10:05:28;14.50;1.00
2623;DHT22;1321;48.690;9.022;2023-05-13T10:07:59;14.50;1.00
2623;DHT22;1321;48.690;9.022;2023-05-13T10:10:29;14.60;1.00
2623;DHT22;1321;48.690;9.022;2023-05-13T10:12:58;14.70;1.00
2623;DHT22;1321;48.690;9.022;2023-05-13T10:15:29;14.80;1.00
2623;DHT22;1321;48.690;9.022;2023-05-13T10:17:58;14.80;1.00
2623;DHT22;1321;48.690;9.022;2023-05-13T10:20:27;14.80;1.00
2623;DHT22;1321;48.690;9.022;2023-05-13T10:22:57;14.70;1.00
2623;DHT22;1321;48.690;9.022;2023-05-13T10:25:26;14.80;1.00
2623;DHT22;1321;48.690;9.022;2023-05-13T10:27:56;14.70;1.00
2623;DHT22;1321;48.690;9.022;2023-05-13T10:30:25;14.60;1.00
2623;DHT22;1321;48.690;9.022;2023-05-13T10:32:53;14.70;1.00
2623;DHT22;1321;48.690;9.022;2023-05-13T10:35:24;14.70;1.00
2623;DHT22;1321;48.690;9.022;2023-05-13T10:38:01;14.60;1.00
2623;DHT22;1321;48.690;9.022;2023-05-13T10:41:00;14.70;1.00
2623;DHT22;1321;48.690;9.022;2023-05-13T10:43:33;14.80;1.00
2623;DHT22;1321;48.690;9.022;2023-05-13T10:46:04;15.00;1.00
2623;DHT22;1321;48.690;9.022;2023-05-13T10:48:39;15.00;1.00
2623;DHT22;1321;48.690;9.022;2023-05-13T10:51:13;15.00;1.00
2623;DHT22;1321;48.690;9.022;2023-05-13T10:53:48;15.00;1.00
2623;DHT22;1321;48.690;9.022;2023-05-13T10:56:19;15.00;1.00
2623;DHT22;1321;48.690;9.022;2023-05-13T10:58:56;15.10;1.00
2623;DHT22;1321;48.690;9.022;2023-05-13T11:01:27;15.00;1.00
2623;DHT22;1321;48.690;9.022;2023-05-13T11:03:59;15.00;1.00
2623;DHT22;1321;48.690;9.022;2023-05-13T11:06:29;15.00;1.00
2623;DHT22;1321;48.690;9.022;2023-05-13T11:09:04;14.90;1.00
2623;DHT22;1321;48.690;9.022;2023-05-13T11:11:34;14.90;1.00
2623;DHT22;1321;48.690;9.022;2023-05-13T11:14:06;14.90;1.00
2623;DHT22;1321;48.690;9.022;2023-05-13T11:16:35;14.90;1.00
2623;DHT22;1321;48.690;9.022;2023-05-13T11:19:08;15.00;1.00
2623;DHT22;1321;48.690;9.022;2023-05-13T11:21:48;15.00;1.00
2623;DHT22;1321;48.690;9.022;2023-05-13T11:24:19;14.90;1.00
2623;DHT22;1321;48.690;9.022;2023-05-13T11:26:50;14.90;1.00
2623;DHT22;1321;48.690;9.022;2023-05-13T11:29:30;14.90;1.00
2623;DHT22;1321;48.690;9.022;2023-05-13T11:31:58;14.90;1.00
2623;DHT22;1321;48.690;9.022;2023-05-13T11:34:28;14.90;1.00
2623;DHT22;1321;48.690;9.022;2023-05-13T11:37:04;14.90;1.00
2623;DHT22;1321;48.690;9.022;2023-05-13T11:39:38;14.90;1.00
2623;DHT22;1321;48.690;9.022;2023-05-13T11:42:07;14.90;1.00
2623;DHT22;1321;48.690;9.022;2023-05-13T11:44:38;14.90;1.00
2623;DHT22;1321;48.690;9.022;2023-05-13T11:47:11;14.90;1.00
2623;DHT22;1321;48.690;9.022;2023-05-13T11:49:40;14.90;1.00
2623;DHT22;1321;48.690;9.022;2023-05-13T11:52:10;14.80;1.00
2623;DHT22;1321;48.690;9.022;2023-05-13T11:54:44;14.80;1.00
2623;DHT22;1321;48.690;9.022;2023-05-13T11:57:20;14.80;1.00
2623;DHT22;1321;48.690;9.022;2023-05-13T11:59:49;14.80;1.00
2623;DHT22;1321;48.690;9.022;2023-05-13T12:02:20;14.80;1.00
2623;DHT22;1321;48.690;9.022;2023-05-13T12:04:49;14.80;1.00
2623;DHT22;1321;48.690;9.022;2023-05-13T12:07:19;14.80;1.00
2623;DHT22;1321;48.690;9.022;2023-05-13T12:09:50;14.80;1.00
2623;DHT22;1321;48.690;9.022;2023-05-13T12:12:19;14.80;1.00
2623;DHT22;1321;48.690;9.022;2023-05-13T12:14:47;14.80;1.00
2623;DHT22;1321;48.690;9.022;2023-05-13T12:17:17;14.80;1.00
2623;DHT22;1321;48.690;9.022;2023-05-13T12:20:05;14.80;1.00
2623;DHT22;1321;48.690;9.022;2023-05-13T12:22:34;14.80;1.00
2623;DHT22;1321;48.690;9.022;2023-05-13T12:25:37;14.80;1.00
2623;DHT22;1321;48.690;9.022;2023-05-13T12:28:07;14.90;1.00
2623;DHT22;1321;48.690;9.022;2023-05-13T12:30:38;15.00;1.00
2623;DHT22;1321;48.690;9.022;2023-05-13T12:33:12;15.10;1.00
2623;DHT22;1321;48.690;9.022;2023-05-13T12:35:40;15.00;1.00
2623;DHT22;1321;48.690;9.022;2023-05-13T12:38:13;15.10;1.00
2623;DHT22;1321;48.690;9.022;2023-05-13T12:40:44;15.10;1.00
2623;DHT22;1321;48.690;9.022;2023-05-13T12:43:12;15.00;1.00
2623;DHT22;1321;48.690;9.022;2023-05-13T12:45:42;15.10;1.00
2623;DHT22;1321;48.690;9.022;2023-05-13T12:48:11;15.00;1.00
2623;DHT22;1321;48.690;9.022;2023-05-13T12:50:40;15.10;1.00
2623;DHT22;1321;48.690;9.022;2023-05-13T12:53:08;15.00;1.00
2623;DHT22;1321;48.690;9.022;2023-05-13T12:55:37;15.00;1.00
2623;DHT22;1321;48.690;9.022;2023-05-13T12:58:07;15.10;1.00
2623;DHT22;1321;48.690;9.022;2023-05-13T13:00:37;15.10;1.00
2623;DHT22;1321;48.690;9.022;2023-05-13T13:03:06;15.10;1.00
2623;DHT22;1321;48.690;9.022;2023-05-13T13:05:34;15.10;1.00
2623;DHT22;1321;48.690;9.022;2023-05-13T13:08:03;15.20;1.00
2623;DHT22;1321;48.690;9.022;2023-05-13T13:10:32;15.20;1.00
2623;DHT22;1321;48.690;9.022;2023-05-13T13:13:00;15.10;1.00
2623;DHT22;1321;48.690;9.022;2023-05-13T13:15:30;15.20;1.00
2623;DHT22;1321;48.690;9.022;2023-05-13T13:17:58;15.20;1.00
2623;DHT22;1321;48.690;9.022;2023-05-13T13:20:26;15.20;1.00
2623;DHT22;1321;48.690;9.022;2023-05-13T13:22:54;15.20;1.00
2623;DHT22;1321;48.690;9.022;2023-05-13T13:25:22;15.10;1.00
2623;DHT22;1321;48.690;9.022;2023-05-13T13:27:50;15.20;1.00
2623;DHT22;1321;48.690;9.022;2023-05-13T13:30:19;15.20;1.00
2623;DHT22;1321;48.690;9.022;2023-05-13T13:32:48;15.20;1.00
2623;DHT22;1321;48.690;9.022;2023-05-13T13:35:17;15.20;1.00
2623;DHT22;1321;48.690;9.022;2023-05-13T13:37:45;15.20;1.00
2623;DHT22;1321;48.690;9.022;2023-05-13T13:40:13;15.20;1.00
2623;DHT22;1321;48.690;9.022;2023-05-13T13:42:41;15.20;1.00
2623;DHT22;1321;48.690;9.022;2023-05-13T13:45:11;15.30;1.00
2623;DHT22;1321;48.690;9.022;2023-05-13T13:47:39;15.40;1.00
2623;DHT22;1321;48.690;9.022;2023-05-13T13:50:10;15.50;1.00
2623;DHT22;1321;48.690;9.022;2023-05-13T13:52:38;15.60;1.00
2623;DHT22;1321;48.690;9.022;2023-05-13T13:55:07;15.60;1.00
2623;DHT22;1321;48.690;9.022;2023-05-13T13:57:37;15.60;1.00
2623;DHT22;1321;48.690;9.022;2023-05-13T14:00:06;15.60;1.00
2623;DHT22;1321;48.690;9.022;2023-05-13T14:02:35;15.60;1.00
2623;DHT22;1321;48.690;9.022;2023-05-13T14:05:04;15.60;1.00
2623;DHT22;1321;48.690;9.022;2023-05-13T14:07:34;15.50;1.00
2623;DHT22;1321;48.690;9.022;2023-05-13T14:10:04;15.50;1.00
2623;DHT22;1321;48.690;9.022;2023-05-13T14:12:32;15.50;1.00
2623;DHT22;1321;48.690;9.022;2023-05-13T14:15:01;15.40;1.00
2623;DHT22;1321;48.690;9.022;2023-05-13T14:17:31;15.40;1.00
2623;DHT22;1321;48.690;9.022;2023-05-13T14:19:59;15.40;1.00
2623;DHT22;1321;48.690;9.022;2023-05-13T14:22:28;15.40;1.00
2623;DHT22;1321;48.690;9.022;2023-05-13T14:24:58;15.30;1.00
2623;DHT22;1321;48.690;9.022;2023-05-13T14:27:27;15.20;1.00
2623;DHT22;1321;48.690;9.022;2023-05-13T14:29:55;15.20;1.00
2623;DHT22;1321;48.690;9.022;2023-05-13T14:32:24;15.10;1.00
2623;DHT22;1321;48.690;9.022;2023-05-13T14:34:52;15.00;1.00
2623;DHT22;1321;48.690;9.022;2023-05-13T14:37:20;15.00;1.00
2623;DHT22;1321;48.690;9.022;2023-05-13T14:39:48;14.90;1.00
2623;DHT22;1321;48.690;9.022;2023-05-13T14:42:18;15.00;1.00
2623;DHT22;1321;48.690;9.022;2023-05-13T14:44:47;15.10;1.00
2623;DHT22;1321;48.690;9.022;2023-05-13T14:47:15;15.10;1.00
2623;DHT22;1321;48.690;9.022;2023-05-13T14:49:43;15.20;1.00
2623;DHT22;1321;48.690;9.022;2023-05-13T14:52:11;15.10;1.00
2623;DHT22;1321;48.690;9.022;2023-05-13T14:54:39;15.10;1.00
2623;DHT22;1321;48.690;9.022;2023-05-13T14:57:08;15.00;1.00
2623;DHT22;1321;48.690;9.022;2023-05-13T14:59:38;15.00;1.00
2623;DHT22;1321;48.690;9.022;2023-05-13T15:02:06;14.90;1.00
2623;DHT22;1321;48.690;9.022;2023-05-13T15:04:34;14.90;1.00
2623;DHT22;1321;48.690;9.022;2023-05-13T15:07:03;15.00;1.00
2623;DHT22;1321;48.690;9.022;2023-05-13T15:09:31;15.00;1.00
2623;DHT22;1321;48.690;9.022;2023-05-13T15:11:59;15.00;1.00
2623;DHT22;1321;48.690;9.022;2023-05-13T15:14:28;15.00;1.00
2623;DHT22;1321;48.690;9.022;2023-05-13T15:16:57;15.10;1.00
2623;DHT22;1321;48.690;9.022;2023-05-13T15:19:26;15.10;1.00
2623;DHT22;1321;48.690;9.022;2023-05-13T15:21:54;15.10;1.00
2623;DHT22;1321;48.690;9.022;2023-05-13T15:24:22;15.20;1.00
2623;DHT22;1321;48.690;9.022;2023-05-13T15:26:50;15.30;1.00
2623;DHT22;1321;48.690;9.022;2023-05-13T15:29:18;15.30;1.00
2623;DHT22;1321;48.690;9.022;2023-05-13T15:31:48;15.40;1.00
2623;DHT22;1321;48.690;9.022;2023-05-13T15:34:17;15.40;1.00
2623;DHT22;1321;48.690;9.022;2023-05-13T15:36:45;15.40;1.00
2623;DHT22;1321;48.690;9.022;2023-05-13T15:39:14;15.50;1.00
2623;DHT22;1321;48.690;9.022;2023-05-13T15:41:43;15.40;1.00
2623;DHT22;1321;48.690;9.022;2023-05-13T15:44:11;15.40;1.00
2623;DHT22;1321;48.690;9.022;2023-05-13T15:46:40;15.30;1.00
2623;DHT22;1321;48.690;9.022;2023-05-13T15:49:08;15.30;1.00
2623;DHT22;1321;48.690;9.022;2023-05-13T15:51:37;15.30;1.00
2623;DHT22;1321;48.690;9.022;2023-05-13T15:54:06;15.40;1.00
2623;DHT22;1321;48.690;9.022;2023-05-13T15:56:34;15.50;1.00
2623;DHT22;1321;48.690;9.022;2023-05-13T15:59:16;15.50;1.00
2623;DHT22;1321;48.690;9.022;2023-05-13T16:01:57;15.40;1.00
2623;DHT22;1321;48.690;9.022;2023-05-13T16:07:24;15.30;1.00
2623;DHT22;1321;48.690;9.022;2023-05-13T16:09:52;15.40;1.00
2623;DHT22;1321;48.690;9.022;2023-05-13T16:12:20;15.40;1.00
2623;DHT22;1321;48.690;9.022;2023-05-13T16:21:50;15.50;1.00
2623;DHT22;1321;48.690;9.022;2023-05-13T16:24:20;15.40;1.00
2623;DHT22;1321;48.690;9.022;2023-05-13T16:26:49;15.40;1.00
2623;DHT22;1321;48.690;9.022;2023-05-13T16:29:17;15.40;1.00
2623;DHT22;1321;48.690;9.022;2023-05-13T16:31:45;15.30;1.00
2623;DHT22;1321;48.690;9.022;2023-05-13T16:34:14;15.30;1.00
2623;DHT22;1321;48.690;9.022;2023-05-13T16:36:42;15.20;1.00